Soddy-Daisy, TN

5:08 AM EDT on September 01, 2015 (GMT -0400)
High Ridge | | Change Station
CLOSE
Current Station
Personal Weather Station
Location: Soddy Daisy, TN
Elevation: 801 ft
Nearby Weather Stations

Elev 801 ft 35.21 °N, 85.16 °W | Updated 12 minutes ago

Clear
Clear
64.8 °F
Feels Like 64.8 °F
N
0.0
Wind Variable Wind from WSW
Gusts 0.0 mph

Today
High -- | Low -- °F
--% Chance of Precip.
Yesterday
High -- | Low -- °F
Precip. -- in
7:12 AM 8:07 PM
Waning Gibbous, 90% visible
Pressure 30.10 in
Visibility 10.0 miles
Clouds Clear
Dew Point 64 °F
Humidity 98%
Rainfall 0.00 in
Snow Depth Not available.
UV 0 out of 12
Pollen 8.50 out of 12
Air Quality Not available.
Flu Activity Not available.
METAR KCHA 010853Z AUTO 00000KT 10SM CLR 21/19 A3012 RMK AO2 SLP191 T02060189 53001
Pressure 30.10 in
Visibility 10.0 miles
Clouds Clear
Dew Point 64 °F
Humidity 98%
Rainfall 0.00 in
Snow Depth Not available.
UV 0 out of 12
Pollen 8.50 out of 12
Air Quality Not available.
Flu Activity Not available.
METAR KCHA 010853Z AUTO 00000KT 10SM CLR 21/19 A3012 RMK AO2 SLP191 T02060189 53001

10-Day Weather Forecast

×

Almanac

Astronomy

Sep. 01, 2015 Rise Set
Actual Time
Civil Twilight
Nautical Twilight
Astronomical Twilight
Moon
Length of Visible Light
Length of Day
Tomorrow will be .
, % of the Moon is Illuminated

Today's Extremes

State Highs State Lows

Community

WunderPhotos

Upload Photos

1,851,490 photos uploaded!

WunderBlogs® & News

Nearby

Air Quality

  Air Quality AQ Index Pollutant
Not available.

Snow Depth

Station Depth Elevation

Earthquake Activity

City Distance Mag. Time & Date
Minimum magnitude displayed is 2.5.

Coastal Water Temperatures

Place Temperature

Stations

Nearby Weather Stations

Station Location Temp. Windchill Dew Point Humidity Wind Precip. Elev Updated Type